createdAt,value
2023-09-29T00:00:07.448Z,0
2023-09-29T00:03:08.055Z,0
2023-09-29T00:06:07.522Z,0
2023-09-29T00:09:07.534Z,0
2023-09-29T00:12:07.489Z,0
2023-09-29T00:15:07.472Z,0
2023-09-29T00:18:07.891Z,0
2023-09-29T00:21:07.513Z,0
2023-09-29T00:24:07.494Z,0
2023-09-29T00:27:07.488Z,0
2023-09-29T00:30:07.367Z,0
2023-09-29T00:33:07.950Z,0
2023-09-29T00:36:07.505Z,0
2023-09-29T00:39:08.224Z,0
2023-09-29T00:42:07.865Z,0
2023-09-29T00:45:07.559Z,0
2023-09-29T00:48:08.266Z,0
2023-09-29T00:51:07.508Z,0
2023-09-29T00:54:07.456Z,0
2023-09-29T00:57:07.602Z,0
2023-09-29T01:00:07.439Z,0
2023-09-29T01:03:08.140Z,0
2023-09-29T01:06:07.567Z,0
2023-09-29T01:09:07.619Z,0
2023-09-29T01:12:07.504Z,0
2023-09-29T01:15:07.643Z,0
2023-09-29T01:18:08.110Z,0
2023-09-29T01:21:07.552Z,0
2023-09-29T01:24:07.721Z,0
2023-09-29T01:27:07.639Z,0
2023-09-29T01:30:07.568Z,0
2023-09-29T01:33:09.001Z,0
2023-09-29T01:36:07.527Z,0
2023-09-29T01:39:07.539Z,0
2023-09-29T01:42:07.514Z,0
2023-09-29T01:45:07.604Z,0
2023-09-29T01:48:08.374Z,0
2023-09-29T01:51:07.531Z,0
2023-09-29T01:54:07.552Z,0
2023-09-29T01:57:07.605Z,0
2023-09-29T02:00:07.694Z,0
2023-09-29T02:03:08.447Z,0
2023-09-29T02:06:07.518Z,0
2023-09-29T02:09:07.571Z,0
2023-09-29T02:12:07.482Z,0
2023-09-29T02:15:07.628Z,0
2023-09-29T02:18:08.482Z,0
2023-09-29T02:21:07.674Z,0
2023-09-29T02:24:07.539Z,0
2023-09-29T02:27:07.493Z,0
2023-09-29T02:30:07.590Z,0
2023-09-29T02:33:08.009Z,0
2023-09-29T02:36:07.612Z,0
2023-09-29T02:39:07.560Z,0
2023-09-29T02:42:07.644Z,0
2023-09-29T02:45:07.653Z,0
2023-09-29T02:48:07.964Z,0
2023-09-29T02:51:07.633Z,0
2023-09-29T02:54:07.694Z,0
2023-09-29T02:57:08.010Z,0
2023-09-29T03:00:07.864Z,0
2023-09-29T03:03:08.082Z,0
2023-09-29T03:06:07.607Z,0
2023-09-29T03:09:07.594Z,0
2023-09-29T03:12:07.657Z,0
2023-09-29T03:15:07.615Z,0
2023-09-29T03:18:08.003Z,0
2023-09-29T03:21:07.724Z,0
2023-09-29T03:24:07.590Z,0
2023-09-29T03:27:07.719Z,0
2023-09-29T03:30:07.699Z,0
2023-09-29T03:33:08.177Z,0
2023-09-29T03:36:07.904Z,0
2023-09-29T03:39:07.576Z,0
2023-09-29T03:42:07.879Z,0
2023-09-29T03:45:07.826Z,0
2023-09-29T03:48:08.004Z,0
2023-09-29T03:51:07.564Z,0
2023-09-29T03:54:07.556Z,0
2023-09-29T03:57:07.609Z,0
2023-09-29T04:00:07.814Z,0
2023-09-29T04:03:08.133Z,0
2023-09-29T04:06:07.735Z,0
2023-09-29T04:09:07.642Z,0
2023-09-29T04:12:07.639Z,0
2023-09-29T04:15:07.687Z,0
2023-09-29T04:18:07.882Z,0
2023-09-29T04:21:07.715Z,0
2023-09-29T04:24:07.727Z,0
2023-09-29T04:27:07.687Z,0
2023-09-29T04:30:07.819Z,0
2023-09-29T04:33:07.901Z,0
2023-09-29T04:36:07.718Z,0
2023-09-29T04:39:07.890Z,0
2023-09-29T04:42:07.715Z,0
2023-09-29T04:45:07.788Z,0
2023-09-29T04:48:08.027Z,3
2023-09-29T04:51:07.646Z,3
2023-09-29T04:54:07.718Z,7
2023-09-29T04:57:07.754Z,10
2023-09-29T05:00:07.957Z,13
2023-09-29T05:03:08.011Z,27
2023-09-29T05:06:07.589Z,37
2023-09-29T05:09:07.738Z,53
2023-09-29T05:12:07.786Z,70
2023-09-29T05:15:07.616Z,93
2023-09-29T05:18:07.978Z,120
2023-09-29T05:21:07.692Z,153
2023-09-29T05:24:08.351Z,213
2023-09-29T05:27:08.076Z,297
2023-09-29T05:30:07.784Z,393
2023-09-29T05:33:08.065Z,443
2023-09-29T05:36:07.894Z,460
2023-09-29T05:39:08.922Z,450
2023-09-29T05:42:07.930Z,413
2023-09-29T05:45:07.858Z,427
2023-09-29T05:48:08.064Z,523
2023-09-29T05:51:08.747Z,643
2023-09-29T05:54:08.641Z,910
2023-09-29T05:57:07.637Z,1210
2023-09-29T06:00:08.078Z,1343
2023-09-29T06:03:08.803Z,1343
2023-09-29T06:06:07.636Z,1357
2023-09-29T06:09:08.524Z,1427
2023-09-29T06:12:07.939Z,1460
2023-09-29T06:15:07.848Z,1270
2023-09-29T06:18:08.216Z,1230
2023-09-29T06:21:07.675Z,1450
2023-09-29T06:24:08.157Z,2003
2023-09-29T06:27:07.717Z,2647
2023-09-29T06:30:07.950Z,3270
2023-09-29T06:33:07.976Z,3603
2023-09-29T06:36:07.674Z,3580
2023-09-29T06:39:07.685Z,3180
2023-09-29T06:42:07.860Z,2693
2023-09-29T06:45:07.785Z,2420
2023-09-29T06:48:08.292Z,2133
2023-09-29T06:51:09.079Z,2580
2023-09-29T06:54:07.713Z,3460
2023-09-29T06:57:08.109Z,3833
2023-09-29T07:00:07.784Z,3737
2023-09-29T07:03:07.995Z,3480
2023-09-29T07:06:07.744Z,3163
2023-09-29T07:09:08.001Z,2770
2023-09-29T07:12:07.909Z,2347
2023-09-29T07:15:07.944Z,2210
2023-09-29T07:18:07.892Z,2290
2023-09-29T07:21:07.905Z,2447
2023-09-29T07:24:08.049Z,2807
2023-09-29T07:27:07.932Z,2930
2023-09-29T07:30:07.753Z,2957
2023-09-29T07:33:08.329Z,3337
2023-09-29T07:36:08.155Z,4143
2023-09-29T07:39:07.762Z,4663
2023-09-29T07:42:07.741Z,4990
2023-09-29T07:45:08.017Z,4837
2023-09-29T07:48:08.071Z,4477
2023-09-29T07:51:07.995Z,3953
2023-09-29T07:54:07.919Z,3637
2023-09-29T07:57:07.846Z,3807
2023-09-29T08:00:07.807Z,3957
2023-09-29T08:03:08.602Z,4463
2023-09-29T08:06:07.834Z,4787
2023-09-29T08:09:07.764Z,5430
2023-09-29T08:12:07.836Z,6383
2023-09-29T08:15:07.785Z,6070
2023-09-29T08:18:08.059Z,5447
2023-09-29T08:21:07.693Z,5567
2023-09-29T08:24:07.637Z,5323
2023-09-29T08:27:07.767Z,5953
2023-09-29T08:30:08.155Z,7100
2023-09-29T08:33:53.689Z,7573
2023-09-29T08:36:07.742Z,7510
2023-09-29T08:39:07.905Z,8170
2023-09-29T08:42:07.905Z,8387
2023-09-29T08:45:07.745Z,7830
2023-09-29T08:48:07.988Z,7603
2023-09-29T08:51:07.780Z,6350
2023-09-29T08:54:07.851Z,6467
2023-09-29T08:57:07.843Z,8167
2023-09-29T09:00:08.337Z,10417
2023-09-29T09:03:08.282Z,10480
2023-09-29T09:06:07.958Z,9067
2023-09-29T09:09:07.922Z,7430
2023-09-29T09:12:07.748Z,8140
2023-09-29T09:15:12.436Z,8250
2023-09-29T09:18:08.313Z,6270
2023-09-29T09:21:07.816Z,5560
2023-09-29T09:24:07.780Z,5323
2023-09-29T09:27:09.141Z,6137
2023-09-29T09:30:07.874Z,7203
2023-09-29T09:33:08.212Z,7987
2023-09-29T09:36:07.821Z,7890
2023-09-29T09:39:08.137Z,8053
2023-09-29T09:42:07.714Z,9550
2023-09-29T09:45:07.877Z,10933
2023-09-29T09:48:12.087Z,10510
2023-09-29T09:51:07.839Z,9557
2023-09-29T09:54:07.728Z,9147
2023-09-29T09:57:08.039Z,8943
2023-09-29T10:00:07.883Z,7777
2023-09-29T10:03:08.198Z,9223
2023-09-29T10:06:07.711Z,11073
2023-09-29T10:09:07.767Z,10633
2023-09-29T10:12:07.711Z,11437
2023-09-29T10:15:07.778Z,12320
2023-09-29T10:18:07.968Z,14860
2023-09-29T10:21:07.706Z,15713
2023-09-29T10:24:08.253Z,16267
2023-09-29T10:27:07.945Z,15717
2023-09-29T10:30:08.212Z,14373
2023-09-29T10:33:08.118Z,13350
2023-09-29T10:36:07.607Z,13853
2023-09-29T10:39:08.269Z,15233
2023-09-29T10:42:07.758Z,15993
2023-09-29T10:45:07.798Z,15947
2023-09-29T10:48:08.364Z,16130
2023-09-29T10:51:07.717Z,15277
2023-09-29T10:54:07.788Z,15180
2023-09-29T10:57:07.801Z,15607
2023-09-29T11:00:08.524Z,16533
2023-09-29T11:03:08.051Z,16957
2023-09-29T11:06:07.829Z,16223
2023-09-29T11:09:07.733Z,16243
2023-09-29T11:12:07.877Z,10497
2023-09-29T11:15:07.756Z,10993
2023-09-29T11:18:07.948Z,11333
2023-09-29T11:21:07.857Z,10857
2023-09-29T11:24:07.786Z,11100
2023-09-29T11:27:07.690Z,11697
2023-09-29T11:30:07.856Z,12403
2023-09-29T11:33:07.931Z,12490
2023-09-29T11:39:07.888Z,14010
2023-09-29T11:42:08.004Z,20353
2023-09-29T11:45:07.839Z,36683
2023-09-29T11:48:08.054Z,19060
2023-09-29T11:51:07.768Z,38227
2023-09-29T11:54:08.271Z,45107
2023-09-29T11:57:07.799Z,13950
2023-09-29T12:00:07.870Z,36090
2023-09-29T12:03:08.258Z,16200
2023-09-29T12:06:08.081Z,19687
2023-09-29T12:09:07.769Z,14100
2023-09-29T12:12:09.609Z,38753
2023-09-29T12:15:08.072Z,15263
2023-09-29T12:18:08.536Z,31267
2023-09-29T12:21:07.749Z,40643
2023-09-29T12:24:07.977Z,37303
2023-09-29T12:27:08.104Z,39097
2023-09-29T12:30:07.798Z,14877
2023-09-29T12:33:08.197Z,23880
2023-09-29T12:36:07.821Z,17210
2023-09-29T12:39:07.678Z,32490
2023-09-29T12:42:07.858Z,33753
2023-09-29T12:45:07.805Z,35567
2023-09-29T12:48:08.095Z,22040
2023-09-29T12:51:07.850Z,25073
2023-09-29T12:54:08.384Z,34697
2023-09-29T12:57:10.925Z,22947
2023-09-29T13:00:07.838Z,14043
2023-09-29T13:03:07.869Z,10163
2023-09-29T13:06:08.189Z,10527
2023-09-29T13:09:07.700Z,10027
2023-09-29T13:12:30.590Z,10353
2023-09-29T13:15:07.737Z,9387
2023-09-29T13:18:08.476Z,6927
2023-09-29T13:21:08.040Z,5700
2023-09-29T13:24:08.119Z,5200
2023-09-29T13:27:07.818Z,8077
2023-09-29T13:30:08.057Z,9663
2023-09-29T13:33:08.171Z,7193
2023-09-29T13:36:08.049Z,5547
2023-09-29T13:39:07.769Z,4923
2023-09-29T13:42:08.008Z,4770
2023-09-29T13:45:08.496Z,5127
2023-09-29T13:48:08.035Z,7570
2023-09-29T13:51:07.752Z,6627
2023-09-29T13:54:07.630Z,7237
2023-09-29T13:57:07.766Z,7960
2023-09-29T14:00:07.853Z,6767
2023-09-29T14:03:08.045Z,7037
2023-09-29T14:06:07.676Z,8090
2023-09-29T14:09:24.794Z,7977
2023-09-29T14:12:07.724Z,9250
2023-09-29T14:15:07.732Z,7107
2023-09-29T14:18:08.384Z,5897
2023-09-29T14:21:07.606Z,6727
2023-09-29T14:24:08.364Z,5833
2023-09-29T14:27:07.761Z,9120
2023-09-29T14:30:07.947Z,10133
2023-09-29T14:33:08.565Z,10370
2023-09-29T14:36:07.773Z,17840
2023-09-29T14:39:07.566Z,18157
2023-09-29T14:42:07.823Z,13637
2023-09-29T14:45:07.662Z,14453
2023-09-29T14:48:08.130Z,7607
2023-09-29T14:51:07.786Z,4843
2023-09-29T14:54:07.756Z,2957
2023-09-29T14:57:07.667Z,2767
2023-09-29T15:00:07.831Z,2427
2023-09-29T15:03:08.014Z,2533
2023-09-29T15:06:08.018Z,2707
2023-09-29T15:09:07.844Z,4863
2023-09-29T15:12:07.704Z,5690
2023-09-29T15:15:07.874Z,5713
2023-09-29T15:18:08.302Z,5297
2023-09-29T15:21:07.802Z,5303
2023-09-29T15:24:08.044Z,4987
2023-09-29T15:27:07.766Z,4043
2023-09-29T15:30:07.827Z,2583
2023-09-29T15:33:07.964Z,1710
2023-09-29T15:36:07.841Z,1203
2023-09-29T15:39:08.053Z,527
2023-09-29T15:42:07.779Z,367
2023-09-29T15:45:08.013Z,1127
2023-09-29T15:48:08.132Z,2607
2023-09-29T15:51:07.692Z,2960
2023-09-29T15:54:07.759Z,3247
2023-09-29T15:57:07.761Z,3233
2023-09-29T16:00:08.021Z,3200
2023-09-29T16:03:08.000Z,3153
2023-09-29T16:06:07.859Z,3503
2023-09-29T16:09:07.791Z,3527
2023-09-29T16:12:07.644Z,2330
2023-09-29T16:15:07.927Z,1870
2023-09-29T16:18:07.876Z,1827
2023-09-29T16:21:07.865Z,1677
2023-09-29T16:24:07.693Z,2007
2023-09-29T16:27:07.730Z,1983
2023-09-29T16:30:08.103Z,1740
2023-09-29T16:33:09.010Z,1330
2023-09-29T16:36:08.005Z,813
2023-09-29T16:39:07.756Z,467
2023-09-29T16:42:07.774Z,303
2023-09-29T16:45:07.748Z,347
2023-09-29T16:48:08.170Z,337
2023-09-29T16:51:07.674Z,287
2023-09-29T16:54:07.836Z,247
2023-09-29T16:57:07.804Z,213
2023-09-29T17:00:07.911Z,167
2023-09-29T17:03:07.969Z,133
2023-09-29T17:06:07.793Z,97
2023-09-29T17:09:07.512Z,67
2023-09-29T17:12:07.763Z,43
2023-09-29T17:15:08.313Z,27
2023-09-29T17:18:07.902Z,20
2023-09-29T17:21:07.634Z,13
2023-09-29T17:24:07.647Z,7
2023-09-29T17:27:07.788Z,3
2023-09-29T17:30:07.891Z,3
2023-09-29T17:33:08.546Z,3
2023-09-29T17:36:07.752Z,0
2023-09-29T17:39:07.660Z,0
2023-09-29T17:42:07.536Z,0
2023-09-29T17:45:07.603Z,0
2023-09-29T17:48:15.949Z,0
2023-09-29T17:51:07.629Z,0
2023-09-29T17:54:07.830Z,0
2023-09-29T17:57:07.620Z,0
2023-09-29T18:00:07.550Z,0
2023-09-29T18:03:07.722Z,0
2023-09-29T18:06:07.671Z,0
2023-09-29T18:09:08.024Z,0
2023-09-29T18:12:07.621Z,0
2023-09-29T18:15:07.662Z,0
2023-09-29T18:18:07.979Z,0
2023-09-29T18:21:07.933Z,0
2023-09-29T18:24:07.814Z,0
2023-09-29T18:27:07.762Z,0
2023-09-29T18:30:07.857Z,0
2023-09-29T18:33:08.152Z,0
2023-09-29T18:36:07.913Z,0
2023-09-29T18:39:07.607Z,0
2023-09-29T18:42:08.016Z,0
2023-09-29T18:45:07.704Z,0
2023-09-29T18:48:07.992Z,0
2023-09-29T18:51:07.918Z,0
2023-09-29T18:54:07.713Z,0
2023-09-29T18:57:07.744Z,0
2023-09-29T19:00:07.950Z,0
2023-09-29T19:03:08.134Z,0
2023-09-29T19:06:08.353Z,0
2023-09-29T19:09:08.852Z,0
2023-09-29T19:12:07.762Z,0
2023-09-29T19:15:07.788Z,0
2023-09-29T19:18:08.074Z,0
2023-09-29T19:21:07.621Z,0
2023-09-29T19:24:07.826Z,0
2023-09-29T19:27:07.775Z,0
2023-09-29T19:30:07.731Z,0
2023-09-29T19:33:11.093Z,0
2023-09-29T19:36:07.789Z,0
2023-09-29T19:39:08.153Z,0
2023-09-29T19:42:08.074Z,0
2023-09-29T19:45:07.804Z,0
2023-09-29T19:48:07.960Z,0
2023-09-29T19:51:07.766Z,0
2023-09-29T19:54:08.400Z,0
2023-09-29T19:57:07.597Z,0
2023-09-29T20:00:08.139Z,0
2023-09-29T20:03:07.975Z,0
2023-09-29T20:06:07.747Z,0
2023-09-29T20:09:07.730Z,0
2023-09-29T20:12:07.790Z,0
2023-09-29T20:15:07.614Z,0
2023-09-29T20:18:07.983Z,0
2023-09-29T20:21:07.762Z,0
2023-09-29T20:24:07.757Z,0
2023-09-29T20:27:07.865Z,0
2023-09-29T20:30:07.667Z,0
2023-09-29T20:33:08.185Z,0
2023-09-29T20:36:07.870Z,0
2023-09-29T20:39:07.721Z,0
2023-09-29T20:42:10.351Z,0
2023-09-29T20:45:07.859Z,0
2023-09-29T20:48:08.004Z,0
2023-09-29T20:51:07.814Z,0
2023-09-29T20:54:07.761Z,0
2023-09-29T20:57:07.665Z,0
2023-09-29T21:00:07.816Z,0
2023-09-29T21:03:08.160Z,0
2023-09-29T21:06:07.893Z,0
2023-09-29T21:09:07.669Z,0
2023-09-29T21:12:07.785Z,0
2023-09-29T21:15:08.170Z,0
2023-09-29T21:18:08.100Z,0
2023-09-29T21:21:07.561Z,0
2023-09-29T21:24:08.356Z,0
2023-09-29T21:27:07.700Z,0
2023-09-29T21:30:08.543Z,0
2023-09-29T21:33:08.036Z,0
2023-09-29T21:36:07.700Z,0
2023-09-29T21:39:07.823Z,0
2023-09-29T21:42:07.911Z,0
2023-09-29T21:45:08.421Z,0
2023-09-29T21:48:07.981Z,0
2023-09-29T21:51:07.801Z,0
2023-09-29T21:54:07.726Z,0
2023-09-29T21:57:07.578Z,0
2023-09-29T22:00:09.625Z,0
2023-09-29T22:03:08.580Z,0
2023-09-29T22:06:07.852Z,0
2023-09-29T22:09:07.726Z,0
2023-09-29T22:12:07.709Z,0
2023-09-29T22:15:08.070Z,0
2023-09-29T22:18:07.980Z,0
2023-09-29T22:21:07.814Z,0
2023-09-29T22:24:07.871Z,0
2023-09-29T22:27:07.647Z,0
2023-09-29T22:30:08.180Z,0
2023-09-29T22:33:08.338Z,0
2023-09-29T22:36:07.740Z,0
2023-09-29T22:39:07.754Z,0
2023-09-29T22:42:07.758Z,0
2023-09-29T22:45:08.445Z,0
2023-09-29T22:48:08.064Z,0
2023-09-29T22:51:07.668Z,0
2023-09-29T22:54:07.875Z,0
2023-09-29T22:57:07.840Z,0
2023-09-29T23:00:08.104Z,0
2023-09-29T23:03:08.323Z,0
2023-09-29T23:06:08.415Z,0
2023-09-29T23:09:07.818Z,0
2023-09-29T23:12:07.847Z,0
2023-09-29T23:15:07.592Z,0
2023-09-29T23:18:08.036Z,0
2023-09-29T23:21:07.753Z,0
2023-09-29T23:24:07.764Z,0
2023-09-29T23:27:07.669Z,0
2023-09-29T23:30:07.988Z,0
2023-09-29T23:33:07.831Z,0
2023-09-29T23:36:07.627Z,0
2023-09-29T23:39:07.528Z,0
2023-09-29T23:42:07.533Z,0
2023-09-29T23:45:07.536Z,0
2023-09-29T23:48:07.851Z,0
2023-09-29T23:51:08.185Z,0
2023-09-29T23:54:07.635Z,0
2023-09-29T23:57:07.625Z,0
